createdAt,value
2022-11-11T00:02:42.275Z,7.46
2022-11-11T00:05:29.862Z,8.30
2022-11-11T00:08:17.464Z,15.53
2022-11-11T00:11:05.042Z,17.57
2022-11-11T00:13:52.633Z,17.55
2022-11-11T00:16:40.221Z,13.20
2022-11-11T00:19:27.795Z,10.04
2022-11-11T00:22:17.344Z,12.41
2022-11-11T00:25:04.924Z,9.19
2022-11-11T00:27:52.498Z,7.93
2022-11-11T00:30:40.062Z,7.75
2022-11-11T00:33:27.642Z,9.38
2022-11-11T00:36:15.538Z,9.64
2022-11-11T00:39:03.096Z,10.26
2022-11-11T00:41:50.680Z,10.20
2022-11-11T00:44:38.279Z,10.22
2022-11-11T00:47:25.963Z,9.86
2022-11-11T00:50:13.562Z,12.90
2022-11-11T00:53:01.214Z,13.76
2022-11-11T00:55:48.846Z,13.39
2022-11-11T00:58:36.472Z,12.53
2022-11-11T01:01:24.158Z,12.16
2022-11-11T01:04:11.788Z,14.87
2022-11-11T01:06:59.533Z,14.43
2022-11-11T01:09:47.265Z,13.20
2022-11-11T01:12:34.979Z,12.66
2022-11-11T01:15:22.579Z,13.18
2022-11-11T01:18:10.167Z,14.35
2022-11-11T01:20:57.916Z,11.03
2022-11-11T01:23:45.751Z,11.08
2022-11-11T01:26:33.328Z,10.24
2022-11-11T01:29:20.995Z,11.49
2022-11-11T01:32:08.657Z,14.03
2022-11-11T01:34:56.265Z,11.98
2022-11-11T01:37:43.858Z,12.03
2022-11-11T01:40:31.485Z,12.03
2022-11-11T01:43:19.181Z,14.44
2022-11-11T01:46:06.790Z,17.30
2022-11-11T01:48:54.373Z,19.48
2022-11-11T01:51:41.983Z,21.62
2022-11-11T01:54:29.694Z,22.24
2022-11-11T01:57:17.387Z,20.40
2022-11-11T02:00:05.151Z,16.51
2022-11-11T02:02:53.029Z,16.33
2022-11-11T02:05:40.703Z,16.11
2022-11-11T02:08:28.294Z,17.02
2022-11-11T02:11:15.880Z,16.59
2022-11-11T02:14:03.561Z,16.40
2022-11-11T02:16:51.264Z,16.25
2022-11-11T02:19:38.998Z,16.86
2022-11-11T02:22:26.676Z,15.93
2022-11-11T02:25:16.325Z,17.55
2022-11-11T02:28:04.089Z,17.60
2022-11-11T02:30:51.798Z,17.77
2022-11-11T02:33:39.578Z,18.45
2022-11-11T02:36:27.161Z,19.67
2022-11-11T02:39:14.885Z,20.03
2022-11-11T02:42:02.624Z,21.14
2022-11-11T02:44:50.383Z,21.19
2022-11-11T02:47:38.046Z,20.82
2022-11-11T02:50:25.785Z,20.33
2022-11-11T02:53:13.389Z,19.32
2022-11-11T02:56:01.080Z,17.32
2022-11-11T02:58:49.102Z,18.76
2022-11-11T03:01:37.064Z,19.06
2022-11-11T03:04:24.796Z,19.59
2022-11-11T03:07:12.443Z,18.63
2022-11-11T03:10:00.322Z,17.98
2022-11-11T03:12:48.142Z,17.22
2022-11-11T03:15:35.748Z,16.29
2022-11-11T03:18:23.418Z,16.13
2022-11-11T03:22:09.999Z,15.73
2022-11-11T03:24:18.552Z,15.31
2022-11-11T03:27:06.154Z,15.49
2022-11-11T03:29:53.728Z,15.90
2022-11-11T03:32:41.283Z,15.53
2022-11-11T03:35:28.917Z,14.74
2022-11-11T03:38:16.488Z,13.91
2022-11-11T03:41:04.078Z,14.16
2022-11-11T03:43:51.657Z,13.73
2022-11-11T03:46:39.251Z,13.83
2022-11-11T03:49:26.797Z,13.80
2022-11-11T03:52:14.397Z,14.25
2022-11-11T03:55:01.961Z,15.02
2022-11-11T03:57:49.563Z,13.93
2022-11-11T04:00:37.121Z,14.47
2022-11-11T04:03:25.124Z,14.45
2022-11-11T04:06:12.980Z,14.44
2022-11-11T04:09:00.592Z,14.25
2022-11-11T04:11:48.182Z,12.60
2022-11-11T04:14:55.708Z,12.57
2022-11-11T04:17:43.572Z,10.52
2022-11-11T04:20:31.186Z,13.18
2022-11-11T04:23:18.791Z,13.38
2022-11-11T04:26:06.335Z,13.42
2022-11-11T04:28:53.894Z,11.74
2022-11-11T04:31:41.468Z,13.01
2022-11-11T04:34:29.026Z,11.44
2022-11-11T04:37:16.690Z,12.87
2022-11-11T04:40:06.248Z,13.11
2022-11-11T04:42:53.847Z,13.63
2022-11-11T04:45:41.434Z,11.56
2022-11-11T04:48:29.025Z,11.26
2022-11-11T04:51:16.577Z,11.36
2022-11-11T04:54:04.149Z,11.31
2022-11-11T04:56:51.724Z,12.72
2022-11-11T04:59:39.314Z,12.49
2022-11-11T05:02:26.886Z,12.64
2022-11-11T05:05:14.485Z,11.87
2022-11-11T05:08:02.041Z,11.45
2022-11-11T05:10:49.624Z,10.70
2022-11-11T05:13:37.199Z,11.36
2022-11-11T05:16:24.755Z,11.43
2022-11-11T05:19:12.341Z,11.39
2022-11-11T05:21:59.913Z,11.49
2022-11-11T05:24:47.502Z,11.32
2022-11-11T05:27:35.091Z,12.01
2022-11-11T05:30:22.651Z,13.21
2022-11-11T05:33:10.316Z,12.85
2022-11-11T05:35:59.872Z,13.10
2022-11-11T05:38:47.455Z,13.13
2022-11-11T05:41:35.070Z,13.69
2022-11-11T05:44:22.658Z,13.90
2022-11-11T05:47:10.267Z,13.72
2022-11-11T05:49:57.838Z,14.79
2022-11-11T05:52:45.422Z,14.68
2022-11-11T05:55:32.985Z,15.16
2022-11-11T05:58:20.562Z,15.53
2022-11-11T06:01:08.126Z,15.83
2022-11-11T06:03:55.728Z,16.07
2022-11-11T06:06:43.353Z,15.82
2022-11-11T06:09:30.942Z,16.04
2022-11-11T06:12:18.515Z,16.09
2022-11-11T06:15:06.091Z,16.97
2022-11-11T06:17:53.686Z,16.95
2022-11-11T06:20:41.361Z,17.33
2022-11-11T06:23:28.946Z,17.57
2022-11-11T06:26:16.538Z,17.13
2022-11-11T06:29:04.144Z,18.04
2022-11-11T06:31:51.725Z,17.04
2022-11-11T06:34:39.330Z,17.67
2022-11-11T06:37:26.915Z,17.90
2022-11-11T06:40:18.914Z,17.84
2022-11-11T06:43:09.249Z,18.21
2022-11-11T06:45:56.838Z,18.37
2022-11-11T06:48:44.419Z,18.69
2022-11-11T06:51:32.043Z,17.84
2022-11-11T06:54:19.620Z,19.06
2022-11-11T06:57:08.657Z,19.45
2022-11-11T06:59:56.435Z,19.13
2022-11-11T07:02:44.022Z,19.17
2022-11-11T07:05:31.596Z,19.67
2022-11-11T07:08:19.288Z,19.67
2022-11-11T07:11:15.608Z,19.89
2022-11-11T07:14:06.212Z,19.93
2022-11-11T07:16:53.792Z,19.91
2022-11-11T07:19:41.572Z,20.11
2022-11-11T07:22:31.129Z,19.39
2022-11-11T07:25:21.841Z,19.96
2022-11-11T07:28:09.421Z,20.34
2022-11-11T07:30:57.026Z,19.90
2022-11-11T07:33:44.588Z,20.02
2022-11-11T07:36:32.175Z,20.34
2022-11-11T07:39:19.754Z,21.28
2022-11-11T07:42:08.927Z,20.21
2022-11-11T07:44:58.491Z,20.17
2022-11-11T07:47:46.091Z,18.70
2022-11-11T07:50:33.673Z,17.85
2022-11-11T07:53:21.533Z,17.48
2022-11-11T07:56:09.338Z,17.17
2022-11-11T07:58:56.925Z,18.05
2022-11-11T08:01:44.517Z,18.17
2022-11-11T08:04:32.114Z,18.65
2022-11-11T08:07:22.937Z,19.05
2022-11-11T08:10:11.162Z,18.62
2022-11-11T08:12:58.740Z,18.90
2022-11-11T08:15:46.347Z,18.67
2022-11-11T08:18:33.910Z,18.74
2022-11-11T08:21:21.530Z,19.09
2022-11-11T08:25:01.490Z,18.10
2022-11-11T08:27:16.633Z,19.14
2022-11-11T08:30:04.221Z,18.52
2022-11-11T08:33:11.787Z,17.90
2022-11-11T08:35:59.343Z,17.29
2022-11-11T08:38:46.930Z,17.38
2022-11-11T08:41:34.514Z,16.68
2022-11-11T08:44:22.088Z,17.16
2022-11-11T08:47:09.685Z,18.16
2022-11-11T08:49:57.261Z,17.54
2022-11-11T08:52:44.871Z,17.69
2022-11-11T08:55:32.456Z,16.79
2022-11-11T08:58:21.014Z,16.66
2022-11-11T09:01:08.644Z,17.52
2022-11-11T09:03:56.238Z,16.98
2022-11-11T09:06:43.838Z,16.56
2022-11-11T09:09:31.465Z,15.85
2022-11-11T09:12:19.072Z,15.87
2022-11-11T09:15:06.660Z,15.31
2022-11-11T09:17:54.245Z,14.89
2022-11-11T09:20:41.823Z,15.89
2022-11-11T09:23:29.421Z,16.00
2022-11-11T09:26:16.997Z,16.12
2022-11-11T09:29:04.593Z,16.40
2022-11-11T09:31:52.180Z,16.06
2022-11-11T09:34:39.758Z,16.29
2022-11-11T09:37:27.413Z,16.89
2022-11-11T09:40:14.991Z,16.51
2022-11-11T09:43:02.572Z,17.16
2022-11-11T09:45:50.158Z,16.95
2022-11-11T09:48:37.753Z,16.06
2022-11-11T09:51:25.357Z,16.17
2022-11-11T09:54:12.947Z,16.35
2022-11-11T09:57:00.513Z,15.97
2022-11-11T09:59:48.085Z,16.23
2022-11-11T10:02:35.655Z,15.77
2022-11-11T10:05:23.261Z,15.98
2022-11-11T10:08:10.841Z,15.81
2022-11-11T10:10:58.438Z,15.80
2022-11-11T10:13:46.031Z,15.76
2022-11-11T10:16:33.623Z,16.47
2022-11-11T10:19:21.189Z,16.51
2022-11-11T10:22:13.401Z,16.25
2022-11-11T10:25:01.360Z,16.76
2022-11-11T10:27:49.025Z,16.57
2022-11-11T10:30:36.611Z,16.35
2022-11-11T10:33:24.204Z,15.34
2022-11-11T10:36:11.805Z,14.63
2022-11-11T10:38:59.392Z,13.61
2022-11-11T10:41:49.029Z,13.95
2022-11-11T10:44:36.591Z,13.54
2022-11-11T10:47:24.193Z,13.64
2022-11-11T10:50:11.803Z,13.81
2022-11-11T10:52:59.375Z,14.43
2022-11-11T10:55:46.966Z,14.92
2022-11-11T10:58:34.568Z,15.04
2022-11-11T11:01:22.259Z,14.72
2022-11-11T11:04:09.881Z,15.56
2022-11-11T11:06:57.478Z,14.61
2022-11-11T11:09:45.094Z,15.02
2022-11-11T11:12:32.697Z,14.47
2022-11-11T11:15:20.277Z,14.57
2022-11-11T11:18:07.891Z,14.24
2022-11-11T11:20:55.477Z,14.52
2022-11-11T11:23:43.082Z,14.35
2022-11-11T11:26:30.631Z,15.96
2022-11-11T11:29:18.208Z,13.80
2022-11-11T11:32:05.810Z,13.73
2022-11-11T11:34:53.366Z,13.78
2022-11-11T11:37:40.937Z,14.36
2022-11-11T11:40:28.516Z,14.40
2022-11-11T11:43:16.097Z,15.19
2022-11-11T11:46:08.081Z,15.26
2022-11-11T11:48:56.032Z,14.97
2022-11-11T11:51:43.624Z,15.11
2022-11-11T11:54:31.200Z,15.68
2022-11-11T11:57:18.797Z,16.44
2022-11-11T12:00:06.374Z,15.49
2022-11-11T12:02:53.960Z,15.46
2022-11-11T12:05:41.581Z,15.82
2022-11-11T12:08:29.159Z,15.60
2022-11-11T12:11:16.739Z,15.95
2022-11-11T12:14:04.434Z,16.02
2022-11-11T12:16:54.005Z,15.50
2022-11-11T12:19:41.605Z,14.41
2022-11-11T12:22:29.204Z,15.30
2022-11-11T12:25:16.775Z,14.77
2022-11-11T12:28:04.350Z,14.70
2022-11-11T12:30:52.017Z,14.68
2022-11-11T12:33:39.576Z,14.65
2022-11-11T12:36:27.196Z,15.53
2022-11-11T12:39:15.459Z,14.39
2022-11-11T12:42:03.055Z,14.94
2022-11-11T12:44:50.620Z,15.59
2022-11-11T12:47:38.301Z,15.41
2022-11-11T12:50:25.876Z,15.42
2022-11-11T12:53:13.460Z,15.49
2022-11-11T12:56:01.035Z,15.71
2022-11-11T12:58:48.580Z,15.18
2022-11-11T13:01:36.197Z,16.80
2022-11-11T13:04:23.780Z,17.93
2022-11-11T13:07:11.463Z,17.58
2022-11-11T13:09:59.078Z,19.13
2022-11-11T13:12:46.670Z,18.61
2022-11-11T13:15:34.245Z,18.92
2022-11-11T13:18:21.827Z,18.79
2022-11-11T13:21:09.397Z,19.48
2022-11-11T13:23:56.993Z,19.50
2022-11-11T13:26:44.576Z,19.72
2022-11-11T13:29:32.210Z,20.11
2022-11-11T13:32:19.815Z,20.27
2022-11-11T13:35:07.405Z,19.01
2022-11-11T13:37:55.009Z,20.11
2022-11-11T13:40:42.577Z,20.23
2022-11-11T13:43:30.188Z,20.19
2022-11-11T13:46:17.761Z,19.61
2022-11-11T13:49:05.364Z,20.63
2022-11-11T13:51:52.923Z,21.12
2022-11-11T13:54:40.617Z,22.32
2022-11-11T13:57:30.200Z,23.38
2022-11-11T14:00:17.808Z,24.84
2022-11-11T14:03:05.366Z,25.38
2022-11-11T14:05:52.973Z,24.49
2022-11-11T14:08:40.545Z,24.62
2022-11-11T14:11:28.127Z,26.23
2022-11-11T14:14:15.706Z,25.46
2022-11-11T14:17:03.286Z,25.28
2022-11-11T14:19:50.867Z,24.86
2022-11-11T14:22:38.434Z,24.72
2022-11-11T14:25:25.996Z,24.68
2022-11-11T14:28:14.671Z,24.58
2022-11-11T14:31:02.270Z,24.46
2022-11-11T14:33:49.859Z,23.50
2022-11-11T14:36:37.479Z,22.36
2022-11-11T14:39:25.070Z,22.85
2022-11-11T14:42:12.646Z,24.77
2022-11-11T14:45:00.248Z,24.48
2022-11-11T14:47:47.807Z,24.13
2022-11-11T14:50:35.393Z,23.80
2022-11-11T14:53:23.231Z,22.70
2022-11-11T14:56:11.012Z,22.42
2022-11-11T14:58:58.575Z,22.93
2022-11-11T15:01:46.237Z,23.57
2022-11-11T15:04:33.859Z,22.93
2022-11-11T15:07:21.490Z,22.02
2022-11-11T15:10:09.133Z,22.24
2022-11-11T15:12:56.725Z,22.95
2022-11-11T15:15:44.320Z,23.59
2022-11-11T15:18:31.920Z,23.07
2022-11-11T15:21:19.502Z,24.08
2022-11-11T15:24:07.096Z,23.99
2022-11-11T15:26:54.702Z,22.56
2022-11-11T15:29:42.301Z,21.18
2022-11-11T15:32:30.023Z,20.13
2022-11-11T15:35:17.650Z,20.28
2022-11-11T15:38:05.426Z,19.19
2022-11-11T15:40:53.006Z,17.78
2022-11-11T15:43:40.590Z,17.77
2022-11-11T15:46:28.186Z,18.56
2022-11-11T15:49:15.769Z,18.58
2022-11-11T15:52:03.361Z,18.32
2022-11-11T15:54:50.953Z,19.00
2022-11-11T15:57:38.537Z,20.01
2022-11-11T16:00:26.098Z,20.08
2022-11-11T16:03:13.692Z,19.96
2022-11-11T16:06:06.949Z,20.60
2022-11-11T16:08:34.206Z,20.76
2022-11-11T16:11:01.549Z,21.54
2022-11-11T16:13:28.881Z,22.49
2022-11-11T16:15:56.249Z,22.52
2022-11-11T16:18:25.834Z,21.75
2022-11-11T16:20:53.241Z,21.70
2022-11-11T16:23:20.518Z,21.93
2022-11-11T16:25:52.315Z,21.99
2022-11-11T16:28:20.869Z,21.69
2022-11-11T16:30:48.165Z,20.94
2022-11-11T16:33:15.425Z,21.21
2022-11-11T16:35:42.702Z,21.99
2022-11-11T16:38:09.983Z,21.36
2022-11-11T16:40:37.254Z,21.38
2022-11-11T16:43:04.521Z,21.46
2022-11-11T16:45:31.793Z,22.00
2022-11-11T16:47:59.038Z,21.88
2022-11-11T16:50:26.313Z,22.30
2022-11-11T16:52:53.561Z,22.19
2022-11-11T16:55:20.815Z,22.63
2022-11-11T16:57:48.080Z,22.67
2022-11-11T17:00:15.351Z,23.34
2022-11-11T17:02:42.638Z,24.11
2022-11-11T17:05:09.883Z,24.10
2022-11-11T17:07:37.152Z,24.66
2022-11-11T17:10:04.403Z,24.52
2022-11-11T17:12:31.669Z,24.83
2022-11-11T17:14:58.938Z,24.79
2022-11-11T17:17:26.248Z,24.58
2022-11-11T17:19:53.517Z,24.88
2022-11-11T17:22:20.788Z,24.83
2022-11-11T17:24:48.036Z,25.43
2022-11-11T17:27:15.280Z,24.38
2022-11-11T17:29:42.552Z,24.87
2022-11-11T17:32:09.937Z,24.54
2022-11-11T17:34:37.204Z,24.24
2022-11-11T17:37:04.483Z,23.89
2022-11-11T17:39:31.733Z,25.01
2022-11-11T17:41:58.994Z,25.20
2022-11-11T17:44:45.148Z,26.14
2022-11-11T17:47:31.004Z,25.13
2022-11-11T17:50:16.801Z,25.09
2022-11-11T17:53:02.695Z,24.57
2022-11-11T17:55:48.537Z,25.15
2022-11-11T17:58:39.822Z,24.88
2022-11-11T18:01:26.928Z,24.04
2022-11-11T18:04:12.913Z,23.58
2022-11-11T18:06:58.924Z,22.95
2022-11-11T18:09:44.842Z,23.47
2022-11-11T18:12:30.779Z,23.70
2022-11-11T18:15:16.656Z,24.34
2022-11-11T18:18:02.435Z,24.16
2022-11-11T18:20:48.237Z,24.93
2022-11-11T18:23:34.274Z,24.38
2022-11-11T18:26:20.209Z,24.88
2022-11-11T18:29:05.965Z,26.39
2022-11-11T18:31:55.951Z,25.71
2022-11-11T18:34:42.347Z,25.18
2022-11-11T18:37:28.174Z,26.07
2022-11-11T18:40:15.762Z,26.39
2022-11-11T18:43:03.418Z,26.46
2022-11-11T18:45:51.011Z,26.77
2022-11-11T18:48:38.583Z,26.63
2022-11-11T18:51:26.166Z,26.85
2022-11-11T18:54:13.760Z,26.70
2022-11-11T18:57:01.368Z,25.29
2022-11-11T18:59:48.934Z,25.24
2022-11-11T19:02:36.536Z,25.87
2022-11-11T19:05:24.096Z,26.44
2022-11-11T19:08:11.686Z,26.98
2022-11-11T19:10:59.258Z,25.63
2022-11-11T19:13:46.849Z,24.44
2022-11-11T19:16:34.434Z,23.43
2022-11-11T19:19:22.011Z,21.87
2022-11-11T19:22:09.590Z,22.87
2022-11-11T19:24:57.189Z,22.89
2022-11-11T19:27:44.746Z,21.13
2022-11-11T19:30:32.332Z,21.47
2022-11-11T19:33:19.900Z,22.31
2022-11-11T19:36:07.501Z,23.59
2022-11-11T19:38:55.067Z,22.16
2022-11-11T19:41:42.654Z,21.08
2022-11-11T19:44:30.250Z,21.23
2022-11-11T19:47:17.837Z,21.11
2022-11-11T19:50:05.516Z,20.43
2022-11-11T19:52:53.078Z,21.56
2022-11-11T19:55:40.686Z,18.02
2022-11-11T19:58:28.283Z,17.93
2022-11-11T20:01:15.958Z,17.21
2022-11-11T20:04:03.601Z,17.95
2022-11-11T20:06:51.291Z,17.61
2022-11-11T20:09:38.883Z,17.01
2022-11-11T20:12:26.504Z,17.12
2022-11-11T20:15:14.065Z,18.30
2022-11-11T20:18:01.644Z,19.43
2022-11-11T20:20:49.227Z,18.34
2022-11-11T20:23:36.821Z,18.92
2022-11-11T20:26:24.410Z,17.66
2022-11-11T20:29:11.986Z,15.64
2022-11-11T20:31:59.537Z,15.04
2022-11-11T20:34:47.144Z,13.30
2022-11-11T20:37:34.740Z,10.17
2022-11-11T20:40:22.295Z,12.40
2022-11-11T20:43:09.875Z,13.02
2022-11-11T20:45:57.454Z,13.46
2022-11-11T20:48:45.001Z,12.23
2022-11-11T20:51:32.597Z,14.05
2022-11-11T20:54:20.189Z,10.63
2022-11-11T20:57:07.747Z,10.69
2022-11-11T20:59:55.419Z,13.00
2022-11-11T21:02:42.974Z,16.99
2022-11-11T21:05:30.534Z,16.12
2022-11-11T21:08:18.139Z,12.52
2022-11-11T21:11:05.689Z,8.76
2022-11-11T21:13:53.280Z,9.68
2022-11-11T21:16:40.908Z,14.60
2022-11-11T21:19:28.506Z,13.07
2022-11-11T21:22:16.055Z,12.34
2022-11-11T21:25:03.631Z,24.56
2022-11-11T21:27:51.198Z,29.16
2022-11-11T21:30:38.786Z,10.79
2022-11-11T21:33:26.613Z,12.76
2022-11-11T21:36:14.481Z,16.16
2022-11-11T21:39:02.172Z,15.11
2022-11-11T21:41:49.795Z,11.57
2022-11-11T21:44:37.463Z,16.67
2022-11-11T21:47:27.006Z,12.15
2022-11-11T21:50:14.579Z,11.17
2022-11-11T21:53:02.223Z,15.90
2022-11-11T21:55:49.850Z,20.66
2022-11-11T21:58:37.452Z,19.52
2022-11-11T22:01:29.751Z,21.11
2022-11-11T22:04:17.840Z,16.03
2022-11-11T22:07:05.460Z,19.37
2022-11-11T22:09:53.122Z,19.63
2022-11-11T22:12:40.724Z,21.38
2022-11-11T22:15:28.314Z,14.40
2022-11-11T22:18:15.875Z,14.01
2022-11-11T22:21:03.479Z,17.76
2022-11-11T22:23:51.033Z,13.18
2022-11-11T22:26:38.607Z,13.94
2022-11-11T22:29:26.150Z,14.33
2022-11-11T22:32:13.717Z,15.56
2022-11-11T22:35:01.297Z,16.75
2022-11-11T22:37:49.120Z,19.51
2022-11-11T22:40:36.829Z,21.71
2022-11-11T22:43:45.621Z,18.29
2022-11-11T22:46:31.974Z,17.20
2022-11-11T22:49:21.578Z,19.91
2022-11-11T22:52:09.142Z,24.86
2022-11-11T22:54:56.729Z,24.58
2022-11-11T22:57:44.333Z,24.32
2022-11-11T23:00:31.874Z,25.61
2022-11-11T23:03:19.444Z,25.44
2022-11-11T23:06:07.082Z,23.61
2022-11-11T23:08:54.678Z,16.30
2022-11-11T23:11:42.227Z,18.71
2022-11-11T23:14:29.829Z,20.81
2022-11-11T23:17:17.405Z,16.28
2022-11-11T23:20:04.986Z,18.95
2022-11-11T23:22:52.556Z,24.16
2022-11-11T23:25:40.146Z,26.78
2022-11-11T23:28:28.085Z,27.55
2022-11-11T23:31:15.913Z,18.81
2022-11-11T23:34:03.493Z,24.02
2022-11-11T23:36:51.110Z,22.54
2022-11-11T23:39:38.692Z,17.00
2022-11-11T23:42:26.330Z,15.39
2022-11-11T23:45:13.897Z,19.60
2022-11-11T23:48:01.458Z,21.40
2022-11-11T23:50:49.060Z,23.69
2022-11-11T23:53:36.687Z,23.98
2022-11-11T23:56:24.266Z,20.78
2022-11-11T23:59:11.841Z,22.38
